sensor_id;sensor_type;location;lat;lon;timestamp;pressure;altitude;pressure_sealevel;temperature;humidity
73624;BME280;61921;53.226;-1.296;2023-04-25T00:00:02;100553.98;;;3.38;78.35
73624;BME280;61921;53.226;-1.296;2023-04-25T00:02:28;100556.16;;;3.17;79.56
73624;BME280;61921;53.226;-1.296;2023-04-25T00:04:53;100556.19;;;3.28;78.93
73624;BME280;61921;53.226;-1.296;2023-04-25T00:07:18;100552.57;;;3.40;78.43
73624;BME280;61921;53.226;-1.296;2023-04-25T00:09:45;100552.17;;;3.28;78.58
73624;BME280;61921;53.226;-1.296;2023-04-25T00:12:09;100552.32;;;3.00;80.01
73624;BME280;61921;53.226;-1.296;2023-04-25T00:14:35;100552.32;;;3.19;79.48
73624;BME280;61921;53.226;-1.296;2023-04-25T00:17:00;100544.57;;;3.25;78.93
73624;BME280;61921;53.226;-1.296;2023-04-25T00:19:26;100541.91;;;3.24;78.88
73624;BME280;61921;53.226;-1.296;2023-04-25T00:21:52;100543.80;;;3.20;79.07
73624;BME280;61921;53.226;-1.296;2023-04-25T00:24:17;100539.94;;;3.16;79.07
73624;BME280;61921;53.226;-1.296;2023-04-25T00:26:43;100542.02;;;3.26;78.72
73624;BME280;61921;53.226;-1.296;2023-04-25T00:29:09;100540.14;;;3.37;78.48
73624;BME280;61921;53.226;-1.296;2023-04-25T00:31:34;100543.89;;;3.38;78.41
73624;BME280;61921;53.226;-1.296;2023-04-25T00:34:00;100543.23;;;3.32;78.42
73624;BME280;61921;53.226;-1.296;2023-04-25T00:36:26;100543.77;;;3.32;78.19
73624;BME280;61921;53.226;-1.296;2023-04-25T00:38:52;100547.52;;;3.33;78.17
73624;BME280;61921;53.226;-1.296;2023-04-25T00:41:17;100551.06;;;3.17;78.69
73624;BME280;61921;53.226;-1.296;2023-04-25T00:43:44;100552.81;;;3.23;78.43
73624;BME280;61921;53.226;-1.296;2023-04-25T00:46:08;100553.63;;;3.24;78.87
73624;BME280;61921;53.226;-1.296;2023-04-25T00:48:34;100555.57;;;3.17;78.59
73624;BME280;61921;53.226;-1.296;2023-04-25T00:51:00;100556.59;;;2.95;80.07
73624;BME280;61921;53.226;-1.296;2023-04-25T00:53:26;100556.82;;;2.99;80.38
73624;BME280;61921;53.226;-1.296;2023-04-25T00:55:51;100554.32;;;3.19;79.46
73624;BME280;61921;53.226;-1.296;2023-04-25T00:58:16;100552.83;;;3.31;78.56
73624;BME280;61921;53.226;-1.296;2023-04-25T01:00:42;100551.93;;;3.18;78.50
73624;BME280;61921;53.226;-1.296;2023-04-25T01:03:08;100553.25;;;3.25;77.74
73624;BME280;61921;53.226;-1.296;2023-04-25T01:05:34;100557.84;;;3.15;77.87
73624;BME280;61921;53.226;-1.296;2023-04-25T01:07:59;100557.72;;;3.10;77.88
73624;BME280;61921;53.226;-1.296;2023-04-25T01:10:24;100561.89;;;3.10;77.96
73624;BME280;61921;53.226;-1.296;2023-04-25T01:12:50;100564.16;;;3.07;78.01
73624;BME280;61921;53.226;-1.296;2023-04-25T01:15:15;100559.85;;;2.97;79.29
73624;BME280;61921;53.226;-1.296;2023-04-25T01:17:41;100561.29;;;2.91;79.39
73624;BME280;61921;53.226;-1.296;2023-04-25T01:20:07;100561.87;;;2.87;79.44
73624;BME280;61921;53.226;-1.296;2023-04-25T01:22:33;100563.44;;;2.86;79.94
73624;BME280;61921;53.226;-1.296;2023-04-25T01:24:58;100559.75;;;2.84;80.15
73624;BME280;61921;53.226;-1.296;2023-04-25T01:27:23;100559.30;;;2.80;80.02
73624;BME280;61921;53.226;-1.296;2023-04-25T01:29:48;100559.45;;;2.77;79.97
73624;BME280;61921;53.226;-1.296;2023-04-25T01:32:15;100558.93;;;2.70;80.11
73624;BME280;61921;53.226;-1.296;2023-04-25T01:34:39;100552.63;;;2.67;80.03
73624;BME280;61921;53.226;-1.296;2023-04-25T01:37:05;100552.59;;;2.58;80.46
73624;BME280;61921;53.226;-1.296;2023-04-25T01:39:30;100550.46;;;2.55;80.49
73624;BME280;61921;53.226;-1.296;2023-04-25T01:41:56;100548.05;;;2.49;80.51
73624;BME280;61921;53.226;-1.296;2023-04-25T01:44:21;100549.66;;;2.45;80.83
73624;BME280;61921;53.226;-1.296;2023-04-25T01:46:47;100554.63;;;2.44;81.11
73624;BME280;61921;53.226;-1.296;2023-04-25T01:49:12;100557.15;;;2.49;81.05
73624;BME280;61921;53.226;-1.296;2023-04-25T01:51:38;100559.72;;;2.43;81.00
73624;BME280;61921;53.226;-1.296;2023-04-25T01:54:04;100563.99;;;2.40;81.74
73624;BME280;61921;53.226;-1.296;2023-04-25T01:56:30;100561.52;;;2.36;81.86
73624;BME280;61921;53.226;-1.296;2023-04-25T01:58:54;100564.96;;;2.41;81.54
73624;BME280;61921;53.226;-1.296;2023-04-25T02:01:20;100564.79;;;2.39;81.13
73624;BME280;61921;53.226;-1.296;2023-04-25T02:03:45;100562.96;;;2.31;81.43
73624;BME280;61921;53.226;-1.296;2023-04-25T02:06:11;100563.36;;;2.27;82.41
73624;BME280;61921;53.226;-1.296;2023-04-25T02:08:36;100563.35;;;2.33;81.90
73624;BME280;61921;53.226;-1.296;2023-04-25T02:11:02;100565.29;;;2.40;81.12
73624;BME280;61921;53.226;-1.296;2023-04-25T02:13:28;100565.10;;;2.36;81.00
73624;BME280;61921;53.226;-1.296;2023-04-25T02:15:54;100564.92;;;2.34;80.80
73624;BME280;61921;53.226;-1.296;2023-04-25T02:18:19;100569.23;;;2.29;80.56
73624;BME280;61921;53.226;-1.296;2023-04-25T02:20:45;100571.37;;;2.25;80.64
73624;BME280;61921;53.226;-1.296;2023-04-25T02:23:11;100573.30;;;2.22;80.64
73624;BME280;61921;53.226;-1.296;2023-04-25T02:25:36;100576.60;;;2.21;80.86
73624;BME280;61921;53.226;-1.296;2023-04-25T02:28:01;100581.51;;;2.19;81.03
73624;BME280;61921;53.226;-1.296;2023-04-25T02:30:27;100588.92;;;1.89;83.49
73624;BME280;61921;53.226;-1.296;2023-04-25T02:32:53;100591.84;;;1.75;84.56
73624;BME280;61921;53.226;-1.296;2023-04-25T02:35:19;100590.56;;;1.72;85.22
73624;BME280;61921;53.226;-1.296;2023-04-25T02:37:43;100586.83;;;1.72;85.22
73624;BME280;61921;53.226;-1.296;2023-04-25T02:40:10;100583.26;;;1.66;86.04
73624;BME280;61921;53.226;-1.296;2023-04-25T02:42:34;100583.96;;;1.54;86.76
73624;BME280;61921;53.226;-1.296;2023-04-25T02:45:00;100577.61;;;1.64;86.64
73624;BME280;61921;53.226;-1.296;2023-04-25T02:47:25;100577.99;;;1.76;85.37
73624;BME280;61921;53.226;-1.296;2023-04-25T02:49:51;100579.66;;;1.62;86.11
73624;BME280;61921;53.226;-1.296;2023-04-25T02:52:16;100584.05;;;1.51;87.38
73624;BME280;61921;53.226;-1.296;2023-04-25T02:54:42;100589.67;;;1.51;87.38
73624;BME280;61921;53.226;-1.296;2023-04-25T02:57:08;100597.25;;;1.47;87.65
73624;BME280;61921;53.226;-1.296;2023-04-25T02:59:34;100595.79;;;1.57;86.61
73624;BME280;61921;53.226;-1.296;2023-04-25T03:01:59;100591.71;;;1.49;88.45
73624;BME280;61921;53.226;-1.296;2023-04-25T03:04:25;100591.32;;;1.77;86.89
73624;BME280;61921;53.226;-1.296;2023-04-25T03:06:50;100591.89;;;1.88;85.54
73624;BME280;61921;53.226;-1.296;2023-04-25T03:09:16;100591.21;;;1.97;84.08
73624;BME280;61921;53.226;-1.296;2023-04-25T03:11:42;100595.65;;;1.90;83.64
73624;BME280;61921;53.226;-1.296;2023-04-25T03:14:07;100599.48;;;1.89;83.35
73624;BME280;61921;53.226;-1.296;2023-04-25T03:16:33;100598.01;;;1.81;83.93
73624;BME280;61921;53.226;-1.296;2023-04-25T03:18:58;100597.65;;;1.84;83.63
73624;BME280;61921;53.226;-1.296;2023-04-25T03:21:24;100599.55;;;1.79;84.50
73624;BME280;61921;53.226;-1.296;2023-04-25T03:23:50;100603.89;;;1.50;86.30
73624;BME280;61921;53.226;-1.296;2023-04-25T03:26:15;100605.17;;;1.54;86.69
73624;BME280;61921;53.226;-1.296;2023-04-25T03:28:41;100608.15;;;1.49;87.42
73624;BME280;61921;53.226;-1.296;2023-04-25T03:31:07;100605.21;;;1.64;87.37
73624;BME280;61921;53.226;-1.296;2023-04-25T03:33:33;100605.50;;;1.77;86.38
73624;BME280;61921;53.226;-1.296;2023-04-25T03:35:59;100609.00;;;1.88;85.05
73624;BME280;61921;53.226;-1.296;2023-04-25T03:38:25;100606.16;;;1.86;84.33
73624;BME280;61921;53.226;-1.296;2023-04-25T03:40:51;100602.20;;;1.85;84.08
73624;BME280;61921;53.226;-1.296;2023-04-25T03:43:16;100605.82;;;1.84;83.74
73624;BME280;61921;53.226;-1.296;2023-04-25T03:45:41;100607.84;;;1.73;84.08
73624;BME280;61921;53.226;-1.296;2023-04-25T03:48:07;100611.62;;;1.73;83.97
73624;BME280;61921;53.226;-1.296;2023-04-25T03:50:32;100606.32;;;1.73;83.74
73624;BME280;61921;53.226;-1.296;2023-04-25T03:52:58;100601.71;;;1.60;84.17
73624;BME280;61921;53.226;-1.296;2023-04-25T03:55:24;100602.78;;;1.64;84.41
73624;BME280;61921;53.226;-1.296;2023-04-25T03:57:49;100605.09;;;1.57;84.92
73624;BME280;61921;53.226;-1.296;2023-04-25T04:00:16;100609.69;;;1.57;84.47
73624;BME280;61921;53.226;-1.296;2023-04-25T04:02:41;100612.88;;;1.52;84.61
73624;BME280;61921;53.226;-1.296;2023-04-25T04:05:06;100613.34;;;1.59;84.32
73624;BME280;61921;53.226;-1.296;2023-04-25T04:07:32;100610.91;;;1.61;83.97
73624;BME280;61921;53.226;-1.296;2023-04-25T04:09:57;100616.94;;;1.47;84.58
73624;BME280;61921;53.226;-1.296;2023-04-25T04:12:23;100618.29;;;1.26;86.22
73624;BME280;61921;53.226;-1.296;2023-04-25T04:14:49;100619.34;;;1.14;86.88
73624;BME280;61921;53.226;-1.296;2023-04-25T04:17:16;100621.55;;;1.27;86.98
73624;BME280;61921;53.226;-1.296;2023-04-25T04:19:40;100624.59;;;1.14;87.99
73624;BME280;61921;53.226;-1.296;2023-04-25T04:22:06;100625.34;;;1.18;87.79
73624;BME280;61921;53.226;-1.296;2023-04-25T04:24:31;100626.87;;;1.44;86.67
73624;BME280;61921;53.226;-1.296;2023-04-25T04:26:57;100624.38;;;1.44;86.01
73624;BME280;61921;53.226;-1.296;2023-04-25T04:29:23;100624.32;;;1.54;85.89
73624;BME280;61921;53.226;-1.296;2023-04-25T04:31:50;100632.36;;;1.52;85.12
73624;BME280;61921;53.226;-1.296;2023-04-25T04:34:20;100635.59;;;1.56;84.89
73624;BME280;61921;53.226;-1.296;2023-04-25T04:36:41;100633.23;;;1.58;84.33
73624;BME280;61921;53.226;-1.296;2023-04-25T04:39:06;100633.10;;;1.55;83.88
73624;BME280;61921;53.226;-1.296;2023-04-25T04:41:32;100642.19;;;1.50;83.66
73624;BME280;61921;53.226;-1.296;2023-04-25T04:43:58;100642.59;;;1.48;83.70
73624;BME280;61921;53.226;-1.296;2023-04-25T04:46:23;100643.62;;;1.48;83.99
73624;BME280;61921;53.226;-1.296;2023-04-25T04:48:48;100648.31;;;1.32;85.37
73624;BME280;61921;53.226;-1.296;2023-04-25T04:51:14;100654.11;;;1.32;86.00
73624;BME280;61921;53.226;-1.296;2023-04-25T04:53:40;100658.15;;;1.31;86.81
73624;BME280;61921;53.226;-1.296;2023-04-25T04:56:06;100663.77;;;1.22;87.45
73624;BME280;61921;53.226;-1.296;2023-04-25T04:58:31;100668.11;;;1.42;86.72
73624;BME280;61921;53.226;-1.296;2023-04-25T05:00:57;100671.09;;;1.14;88.01
73624;BME280;61921;53.226;-1.296;2023-04-25T05:03:22;100670.05;;;1.18;88.44
73624;BME280;61921;53.226;-1.296;2023-04-25T05:05:48;100667.65;;;0.91;89.67
73624;BME280;61921;53.226;-1.296;2023-04-25T05:08:14;100669.58;;;1.28;89.08
73624;BME280;61921;53.226;-1.296;2023-04-25T05:10:39;100666.15;;;1.00;89.62
73624;BME280;61921;53.226;-1.296;2023-04-25T05:13:04;100667.67;;;1.13;89.85
73624;BME280;61921;53.226;-1.296;2023-04-25T05:15:30;100669.85;;;1.15;89.43
73624;BME280;61921;53.226;-1.296;2023-04-25T05:17:55;100668.05;;;1.32;88.75
73624;BME280;61921;53.226;-1.296;2023-04-25T05:20:21;100665.39;;;1.31;88.16
73624;BME280;61921;53.226;-1.296;2023-04-25T05:22:47;100665.54;;;1.34;88.27
73624;BME280;61921;53.226;-1.296;2023-04-25T05:25:13;100667.96;;;1.38;88.98
73624;BME280;61921;53.226;-1.296;2023-04-25T05:27:38;100666.92;;;1.32;89.41
73624;BME280;61921;53.226;-1.296;2023-04-25T05:30:05;100666.78;;;1.53;88.63
73624;BME280;61921;53.226;-1.296;2023-04-25T05:32:30;100668.26;;;1.60;88.29
73624;BME280;61921;53.226;-1.296;2023-04-25T05:34:55;100672.26;;;1.76;87.12
73624;BME280;61921;53.226;-1.296;2023-04-25T05:37:21;100670.95;;;1.86;85.97
73624;BME280;61921;53.226;-1.296;2023-04-25T05:39:47;100669.99;;;1.76;86.45
73624;BME280;61921;53.226;-1.296;2023-04-25T05:42:13;100668.58;;;1.87;86.36
73624;BME280;61921;53.226;-1.296;2023-04-25T05:44:39;100666.52;;;1.86;86.39
73624;BME280;61921;53.226;-1.296;2023-04-25T05:47:04;100666.34;;;1.97;85.39
73624;BME280;61921;53.226;-1.296;2023-04-25T05:49:30;100667.32;;;2.09;85.02
73624;BME280;61921;53.226;-1.296;2023-04-25T05:51:56;100666.28;;;2.09;84.84
73624;BME280;61921;53.226;-1.296;2023-04-25T05:54:21;100669.29;;;2.18;84.58
73624;BME280;61921;53.226;-1.296;2023-04-25T05:56:47;100669.15;;;2.21;84.82
73624;BME280;61921;53.226;-1.296;2023-04-25T05:59:13;100675.59;;;2.28;84.41
73624;BME280;61921;53.226;-1.296;2023-04-25T06:01:38;100683.04;;;2.25;85.37
73624;BME280;61921;53.226;-1.296;2023-04-25T06:04:04;100686.94;;;2.11;85.60
73624;BME280;61921;53.226;-1.296;2023-04-25T06:06:30;100688.08;;;2.18;85.58
73624;BME280;61921;53.226;-1.296;2023-04-25T06:08:56;100686.06;;;2.30;85.34
73624;BME280;61921;53.226;-1.296;2023-04-25T06:11:21;100686.94;;;2.37;84.92
73624;BME280;61921;53.226;-1.296;2023-04-25T06:13:47;100684.61;;;2.53;84.77
73624;BME280;61921;53.226;-1.296;2023-04-25T06:16:12;100687.25;;;2.58;84.50
73624;BME280;61921;53.226;-1.296;2023-04-25T06:18:38;100694.49;;;2.71;84.27
73624;BME280;61921;53.226;-1.296;2023-04-25T06:21:03;100703.86;;;2.78;83.90
73624;BME280;61921;53.226;-1.296;2023-04-25T06:23:28;100714.53;;;2.85;83.68
73624;BME280;61921;53.226;-1.296;2023-04-25T06:25:54;100718.46;;;2.81;83.87
73624;BME280;61921;53.226;-1.296;2023-04-25T06:28:20;100714.83;;;2.72;83.66
73624;BME280;61921;53.226;-1.296;2023-04-25T06:30:45;100718.61;;;2.88;83.42
73624;BME280;61921;53.226;-1.296;2023-04-25T06:33:11;100718.62;;;2.89;82.77
73624;BME280;61921;53.226;-1.296;2023-04-25T06:35:37;100717.45;;;3.12;82.11
73624;BME280;61921;53.226;-1.296;2023-04-25T06:38:02;100716.78;;;3.19;81.61
73624;BME280;61921;53.226;-1.296;2023-04-25T06:40:28;100713.84;;;3.39;81.44
73624;BME280;61921;53.226;-1.296;2023-04-25T06:42:54;100721.61;;;3.29;80.82
73624;BME280;61921;53.226;-1.296;2023-04-25T06:45:19;100723.96;;;3.34;80.65
73624;BME280;61921;53.226;-1.296;2023-04-25T06:47:45;100729.65;;;3.32;80.14
73624;BME280;61921;53.226;-1.296;2023-04-25T06:50:10;100729.22;;;3.58;79.92
73624;BME280;61921;53.226;-1.296;2023-04-25T06:52:36;100731.09;;;3.38;81.35
73624;BME280;61921;53.226;-1.296;2023-04-25T06:55:03;100729.14;;;3.52;81.39
73624;BME280;61921;53.226;-1.296;2023-04-25T06:57:27;100729.31;;;3.40;81.43
73624;BME280;61921;53.226;-1.296;2023-04-25T06:59:53;100730.27;;;3.49;81.59
73624;BME280;61921;53.226;-1.296;2023-04-25T07:02:19;100730.48;;;3.62;82.17
73624;BME280;61921;53.226;-1.296;2023-04-25T07:04:44;100728.75;;;3.65;81.14
73624;BME280;61921;53.226;-1.296;2023-04-25T07:07:10;100725.76;;;3.82;81.15
73624;BME280;61921;53.226;-1.296;2023-04-25T07:09:35;100726.42;;;3.84;80.74
73624;BME280;61921;53.226;-1.296;2023-04-25T07:12:01;100725.51;;;3.93;80.58
73624;BME280;61921;53.226;-1.296;2023-04-25T07:14:27;100729.83;;;4.03;80.48
73624;BME280;61921;53.226;-1.296;2023-04-25T07:16:52;100734.94;;;4.07;78.82
73624;BME280;61921;53.226;-1.296;2023-04-25T07:19:18;100737.13;;;4.20;78.93
73624;BME280;61921;53.226;-1.296;2023-04-25T07:21:44;100736.49;;;4.26;78.06
73624;BME280;61921;53.226;-1.296;2023-04-25T07:24:09;100731.44;;;4.43;77.14
73624;BME280;61921;53.226;-1.296;2023-04-25T07:26:35;100734.00;;;4.50;75.74
73624;BME280;61921;53.226;-1.296;2023-04-25T07:29:01;100733.56;;;4.67;76.24
73624;BME280;61921;53.226;-1.296;2023-04-25T07:31:26;100735.73;;;4.75;75.92
73624;BME280;61921;53.226;-1.296;2023-04-25T07:33:52;100734.62;;;4.90;76.06
73624;BME280;61921;53.226;-1.296;2023-04-25T07:36:17;100740.16;;;4.93;73.92
73624;BME280;61921;53.226;-1.296;2023-04-25T07:38:43;100741.72;;;5.06;75.04
73624;BME280;61921;53.226;-1.296;2023-04-25T07:41:09;100745.55;;;5.20;73.24
73624;BME280;61921;53.226;-1.296;2023-04-25T07:43:34;100754.26;;;5.37;72.75
73624;BME280;61921;53.226;-1.296;2023-04-25T07:46:00;100756.88;;;5.51;70.71
73624;BME280;61921;53.226;-1.296;2023-04-25T07:48:25;100753.13;;;5.86;69.55
73624;BME280;61921;53.226;-1.296;2023-04-25T07:50:51;100750.66;;;6.17;68.07
73624;BME280;61921;53.226;-1.296;2023-04-25T07:53:16;100757.93;;;6.47;67.01
73624;BME280;61921;53.226;-1.296;2023-04-25T07:55:42;100759.59;;;6.65;66.65
73624;BME280;61921;53.226;-1.296;2023-04-25T07:58:08;100761.68;;;7.04;65.60
73624;BME280;61921;53.226;-1.296;2023-04-25T08:00:33;100760.66;;;6.79;64.61
73624;BME280;61921;53.226;-1.296;2023-04-25T08:02:59;100763.79;;;6.84;63.66
73624;BME280;61921;53.226;-1.296;2023-04-25T08:05:24;100770.18;;;6.70;63.89
73624;BME280;61921;53.226;-1.296;2023-04-25T08:07:50;100766.50;;;7.08;63.63
73624;BME280;61921;53.226;-1.296;2023-04-25T08:10:21;100768.36;;;6.85;64.15
73624;BME280;61921;53.226;-1.296;2023-04-25T08:12:41;100770.37;;;7.10;63.30
73624;BME280;61921;53.226;-1.296;2023-04-25T08:15:08;100770.40;;;7.38;62.87
73624;BME280;61921;53.226;-1.296;2023-04-25T08:17:32;100769.09;;;7.83;60.80
73624;BME280;61921;53.226;-1.296;2023-04-25T08:19:58;100773.47;;;7.69;60.48
73624;BME280;61921;53.226;-1.296;2023-04-25T08:22:23;100777.19;;;8.11;59.28
73624;BME280;61921;53.226;-1.296;2023-04-25T08:24:48;100784.95;;;8.24;58.98
73624;BME280;61921;53.226;-1.296;2023-04-25T08:27:14;100789.05;;;7.83;57.84
73624;BME280;61921;53.226;-1.296;2023-04-25T08:29:39;100786.53;;;8.00;57.77
73624;BME280;61921;53.226;-1.296;2023-04-25T08:32:05;100784.58;;;8.33;57.19
73624;BME280;61921;53.226;-1.296;2023-04-25T08:34:30;100785.86;;;8.40;56.36
73624;BME280;61921;53.226;-1.296;2023-04-25T08:36:56;100791.10;;;8.14;55.67
73624;BME280;61921;53.226;-1.296;2023-04-25T08:39:22;100795.89;;;7.78;56.62
73624;BME280;61921;53.226;-1.296;2023-04-25T08:41:47;100798.01;;;7.87;55.54
73624;BME280;61921;53.226;-1.296;2023-04-25T08:44:13;100802.54;;;7.84;55.76
73624;BME280;61921;53.226;-1.296;2023-04-25T08:46:39;100797.52;;;7.95;56.09
73624;BME280;61921;53.226;-1.296;2023-04-25T08:49:03;100800.03;;;8.28;55.60
73624;BME280;61921;53.226;-1.296;2023-04-25T08:51:32;100799.09;;;8.48;51.79
73624;BME280;61921;53.226;-1.296;2023-04-25T08:53:56;100803.45;;;8.41;50.57
73624;BME280;61921;53.226;-1.296;2023-04-25T08:56:20;100801.12;;;8.55;50.83
73624;BME280;61921;53.226;-1.296;2023-04-25T08:58:48;100800.38;;;8.42;50.42
73624;BME280;61921;53.226;-1.296;2023-04-25T09:01:12;100800.69;;;8.20;50.42
73624;BME280;61921;53.226;-1.296;2023-04-25T09:03:37;100800.42;;;8.24;51.07
73624;BME280;61921;53.226;-1.296;2023-04-25T09:06:03;100801.60;;;8.52;50.00
73624;BME280;61921;53.226;-1.296;2023-04-25T09:08:28;100799.59;;;8.65;50.29
73624;BME280;61921;53.226;-1.296;2023-04-25T09:10:53;100800.42;;;8.54;49.47
73624;BME280;61921;53.226;-1.296;2023-04-25T09:13:24;100796.61;;;8.56;49.36
73624;BME280;61921;53.226;-1.296;2023-04-25T09:15:48;100793.27;;;8.41;50.01
73624;BME280;61921;53.226;-1.296;2023-04-25T09:18:10;100795.57;;;8.80;50.26
73624;BME280;61921;53.226;-1.296;2023-04-25T09:20:41;100797.29;;;9.20;48.65
73624;BME280;61921;53.226;-1.296;2023-04-25T09:23:02;100790.51;;;9.25;47.72
73624;BME280;61921;53.226;-1.296;2023-04-25T09:25:26;100792.01;;;9.00;48.94
73624;BME280;61921;53.226;-1.296;2023-04-25T09:27:53;100787.54;;;8.89;49.29
73624;BME280;61921;53.226;-1.296;2023-04-25T09:30:18;100788.08;;;9.21;49.06
73624;BME280;61921;53.226;-1.296;2023-04-25T09:32:43;100787.00;;;9.34;48.23
73624;BME280;61921;53.226;-1.296;2023-04-25T09:35:09;100790.23;;;9.77;47.79
73624;BME280;61921;53.226;-1.296;2023-04-25T09:37:34;100795.70;;;9.56;46.46
73624;BME280;61921;53.226;-1.296;2023-04-25T09:40:03;100795.10;;;9.69;45.78
73624;BME280;61921;53.226;-1.296;2023-04-25T09:42:26;100790.51;;;9.34;44.59
73624;BME280;61921;53.226;-1.296;2023-04-25T09:44:52;100789.82;;;9.39;44.55
73624;BME280;61921;53.226;-1.296;2023-04-25T09:47:16;100792.86;;;9.49;44.77
73624;BME280;61921;53.226;-1.296;2023-04-25T09:49:42;100788.57;;;9.53;44.51
73624;BME280;61921;53.226;-1.296;2023-04-25T09:52:08;100790.54;;;9.70;44.74
73624;BME280;61921;53.226;-1.296;2023-04-25T09:54:33;100792.40;;;9.91;44.12
73624;BME280;61921;53.226;-1.296;2023-04-25T09:57:01;100793.99;;;9.83;43.67
73624;BME280;61921;53.226;-1.296;2023-04-25T09:59:24;100796.48;;;10.28;45.00
73624;BME280;61921;53.226;-1.296;2023-04-25T10:01:49;100798.25;;;10.44;43.62
73624;BME280;61921;53.226;-1.296;2023-04-25T10:04:18;100792.54;;;10.70;41.54
73624;BME280;61921;53.226;-1.296;2023-04-25T10:06:41;100789.04;;;10.27;43.63
73624;BME280;61921;53.226;-1.296;2023-04-25T10:09:06;100790.83;;;10.13;42.18
73624;BME280;61921;53.226;-1.296;2023-04-25T10:11:31;100794.81;;;9.99;44.56
73624;BME280;61921;53.226;-1.296;2023-04-25T10:13:56;100793.82;;;9.99;42.24
73624;BME280;61921;53.226;-1.296;2023-04-25T10:16:21;100791.04;;;9.93;43.17
73624;BME280;61921;53.226;-1.296;2023-04-25T10:18:47;100789.80;;;9.49;42.18
73624;BME280;61921;53.226;-1.296;2023-04-25T10:21:13;100799.04;;;9.70;42.94
73624;BME280;61921;53.226;-1.296;2023-04-25T10:23:38;100800.58;;;9.88;43.79
73624;BME280;61921;53.226;-1.296;2023-04-25T10:26:04;100797.20;;;9.79;42.92
73624;BME280;61921;53.226;-1.296;2023-04-25T10:28:29;100796.41;;;9.99;42.19
73624;BME280;61921;53.226;-1.296;2023-04-25T10:30:58;100792.03;;;10.24;42.75
73624;BME280;61921;53.226;-1.296;2023-04-25T10:33:32;100787.84;;;10.39;42.02
73624;BME280;61921;53.226;-1.296;2023-04-25T10:35:45;100791.21;;;9.85;42.26
73624;BME280;61921;53.226;-1.296;2023-04-25T10:38:13;100791.16;;;10.57;42.78
73624;BME280;61921;53.226;-1.296;2023-04-25T10:40:36;100790.83;;;10.33;41.89
73624;BME280;61921;53.226;-1.296;2023-04-25T10:45:27;100789.36;;;10.63;40.79
73624;BME280;61921;53.226;-1.296;2023-04-25T10:47:52;100794.19;;;10.72;41.17
73624;BME280;61921;53.226;-1.296;2023-04-25T10:50:18;100796.18;;;10.58;42.12
73624;BME280;61921;53.226;-1.296;2023-04-25T10:52:43;100795.91;;;10.83;41.93
73624;BME280;61921;53.226;-1.296;2023-04-25T10:55:09;100794.61;;;10.87;41.47
73624;BME280;61921;53.226;-1.296;2023-04-25T10:57:40;100792.62;;;11.06;41.47
73624;BME280;61921;53.226;-1.296;2023-04-25T11:00:01;100794.22;;;11.46;39.09
73624;BME280;61921;53.226;-1.296;2023-04-25T11:02:26;100793.66;;;11.42;40.24
73624;BME280;61921;53.226;-1.296;2023-04-25T11:04:51;100788.42;;;11.26;40.32
73624;BME280;61921;53.226;-1.296;2023-04-25T11:07:23;100792.36;;;10.40;40.45
73624;BME280;61921;53.226;-1.296;2023-04-25T11:09:41;100792.70;;;10.83;41.79
73624;BME280;61921;53.226;-1.296;2023-04-25T11:12:08;100791.04;;;11.19;40.44
73624;BME280;61921;53.226;-1.296;2023-04-25T11:14:32;100788.20;;;11.34;39.33
73624;BME280;61921;53.226;-1.296;2023-04-25T11:16:58;100788.67;;;11.39;40.44
73624;BME280;61921;53.226;-1.296;2023-04-25T11:19:23;100781.85;;;11.81;38.32
73624;BME280;61921;53.226;-1.296;2023-04-25T11:21:48;100778.34;;;11.93;39.79
73624;BME280;61921;53.226;-1.296;2023-04-25T11:24:13;100777.76;;;12.02;40.72
73624;BME280;61921;53.226;-1.296;2023-04-25T11:26:41;100773.73;;;11.45;39.64
73624;BME280;61921;53.226;-1.296;2023-04-25T11:29:04;100773.70;;;11.38;38.73
73624;BME280;61921;53.226;-1.296;2023-04-25T11:31:29;100774.43;;;11.61;40.09
73624;BME280;61921;53.226;-1.296;2023-04-25T11:33:57;100772.97;;;11.38;38.39
73624;BME280;61921;53.226;-1.296;2023-04-25T11:36:20;100771.88;;;11.77;40.18
73624;BME280;61921;53.226;-1.296;2023-04-25T11:38:45;100773.54;;;11.73;38.85
73624;BME280;61921;53.226;-1.296;2023-04-25T11:41:11;100769.64;;;11.69;37.01
73624;BME280;61921;53.226;-1.296;2023-04-25T11:43:36;100770.98;;;11.57;37.92
73624;BME280;61921;53.226;-1.296;2023-04-25T11:46:06;100771.65;;;11.62;39.85
73624;BME280;61921;53.226;-1.296;2023-04-25T11:48:27;100768.83;;;11.72;38.79
73624;BME280;61921;53.226;-1.296;2023-04-25T11:50:54;100762.78;;;11.39;39.45
73624;BME280;61921;53.226;-1.296;2023-04-25T11:53:18;100756.87;;;11.90;37.40
73624;BME280;61921;53.226;-1.296;2023-04-25T11:55:43;100753.37;;;12.58;37.39
73624;BME280;61921;53.226;-1.296;2023-04-25T11:58:08;100752.42;;;12.74;37.89
73624;BME280;61921;53.226;-1.296;2023-04-25T12:00:35;100756.70;;;12.86;37.39
73624;BME280;61921;53.226;-1.296;2023-04-25T12:02:59;100760.63;;;13.11;38.05
73624;BME280;61921;53.226;-1.296;2023-04-25T12:05:27;100755.29;;;12.29;37.00
73624;BME280;61921;53.226;-1.296;2023-04-25T12:07:50;100757.33;;;12.34;38.09
73624;BME280;61921;53.226;-1.296;2023-04-25T12:10:17;100758.36;;;12.62;36.92
73624;BME280;61921;53.226;-1.296;2023-04-25T12:12:42;100757.62;;;12.65;36.60
73624;BME280;61921;53.226;-1.296;2023-04-25T12:15:11;100764.03;;;12.92;38.64
73624;BME280;61921;53.226;-1.296;2023-04-25T12:17:31;100762.24;;;12.18;34.87
73624;BME280;61921;53.226;-1.296;2023-04-25T12:19:56;100764.63;;;12.05;36.18
73624;BME280;61921;53.226;-1.296;2023-04-25T12:22:23;100761.64;;;12.30;36.49
73624;BME280;61921;53.226;-1.296;2023-04-25T12:24:47;100762.23;;;12.77;36.73
73624;BME280;61921;53.226;-1.296;2023-04-25T12:27:16;100765.19;;;13.27;37.23
73624;BME280;61921;53.226;-1.296;2023-04-25T12:29:37;100766.28;;;13.28;36.88
73624;BME280;61921;53.226;-1.296;2023-04-25T12:32:02;100763.79;;;13.71;36.47
73624;BME280;61921;53.226;-1.296;2023-04-25T12:34:28;100763.33;;;13.16;36.19
73624;BME280;61921;53.226;-1.296;2023-04-25T12:36:53;100769.60;;;12.99;34.85
73624;BME280;61921;53.226;-1.296;2023-04-25T12:39:20;100770.12;;;12.35;35.36